sensor_id;sensor_type;location;lat;lon;timestamp;P1;durP1;ratioP1;P2;durP2;ratioP2
35245;SDS011;21379;50.962;6.960;2024-01-15T00:00:54;25.42;;;9.95;;
35245;SDS011;21379;50.962;6.960;2024-01-15T00:03:20;26.90;;;9.20;;
35245;SDS011;21379;50.962;6.960;2024-01-15T00:05:47;30.50;;;10.50;;
35245;SDS011;21379;50.962;6.960;2024-01-15T00:08:14;34.33;;;11.90;;
35245;SDS011;21379;50.962;6.960;2024-01-15T00:10:40;20.10;;;7.65;;
35245;SDS011;21379;50.962;6.960;2024-01-15T00:13:07;18.13;;;7.35;;
35245;SDS011;21379;50.962;6.960;2024-01-15T00:15:34;23.85;;;8.00;;
35245;SDS011;21379;50.962;6.960;2024-01-15T00:18:02;29.27;;;11.20;;
35245;SDS011;21379;50.962;6.960;2024-01-15T00:22:55;35.58;;;11.98;;
35245;SDS011;21379;50.962;6.960;2024-01-15T00:25:22;26.55;;;10.65;;
35245;SDS011;21379;50.962;6.960;2024-01-15T00:27:49;19.20;;;8.15;;
35245;SDS011;21379;50.962;6.960;2024-01-15T00:30:15;31.27;;;10.82;;
35245;SDS011;21379;50.962;6.960;2024-01-15T00:32:42;24.65;;;9.30;;
35245;SDS011;21379;50.962;6.960;2024-01-15T00:35:10;29.30;;;11.50;;
35245;SDS011;21379;50.962;6.960;2024-01-15T00:37:37;32.50;;;11.10;;
35245;SDS011;21379;50.962;6.960;2024-01-15T00:40:04;29.27;;;9.80;;
35245;SDS011;21379;50.962;6.960;2024-01-15T00:42:33;29.67;;;10.70;;
35245;SDS011;21379;50.962;6.960;2024-01-15T00:44:59;33.47;;;12.15;;
35245;SDS011;21379;50.962;6.960;2024-01-15T00:47:26;34.58;;;11.48;;
35245;SDS011;21379;50.962;6.960;2024-01-15T00:49:53;31.70;;;11.02;;
35245;SDS011;21379;50.962;6.960;2024-01-15T00:52:21;29.13;;;10.88;;
35245;SDS011;21379;50.962;6.960;2024-01-15T00:54:47;38.28;;;12.48;;
35245;SDS011;21379;50.962;6.960;2024-01-15T00:57:14;40.42;;;12.60;;
35245;SDS011;21379;50.962;6.960;2024-01-15T00:59:40;28.65;;;11.32;;
35245;SDS011;21379;50.962;6.960;2024-01-15T01:02:07;24.48;;;9.60;;
35245;SDS011;21379;50.962;6.960;2024-01-15T01:04:34;24.83;;;9.85;;
35245;SDS011;21379;50.962;6.960;2024-01-15T01:07:00;27.38;;;8.82;;
35245;SDS011;21379;50.962;6.960;2024-01-15T01:09:28;35.08;;;12.88;;
35245;SDS011;21379;50.962;6.960;2024-01-15T01:11:56;24.02;;;9.15;;
35245;SDS011;21379;50.962;6.960;2024-01-15T01:14:23;34.20;;;12.73;;
35245;SDS011;21379;50.962;6.960;2024-01-15T01:16:50;18.60;;;8.32;;
35245;SDS011;21379;50.962;6.960;2024-01-15T01:19:16;37.42;;;12.55;;
35245;SDS011;21379;50.962;6.960;2024-01-15T01:21:43;29.50;;;10.82;;
35245;SDS011;21379;50.962;6.960;2024-01-15T01:24:10;38.25;;;12.90;;
35245;SDS011;21379;50.962;6.960;2024-01-15T01:26:38;29.50;;;12.43;;
35245;SDS011;21379;50.962;6.960;2024-01-15T01:29:04;30.88;;;11.60;;
35245;SDS011;21379;50.962;6.960;2024-01-15T01:31:31;36.50;;;11.93;;
35245;SDS011;21379;50.962;6.960;2024-01-15T01:33:58;34.88;;;12.32;;
35245;SDS011;21379;50.962;6.960;2024-01-15T01:36:25;38.25;;;12.20;;
35245;SDS011;21379;50.962;6.960;2024-01-15T01:38:51;30.23;;;10.63;;
35245;SDS011;21379;50.962;6.960;2024-01-15T01:41:18;39.13;;;12.77;;
35245;SDS011;21379;50.962;6.960;2024-01-15T01:43:46;31.20;;;10.15;;
35245;SDS011;21379;50.962;6.960;2024-01-15T01:46:13;34.83;;;11.88;;
35245;SDS011;21379;50.962;6.960;2024-01-15T01:48:39;24.63;;;10.27;;
35245;SDS011;21379;50.962;6.960;2024-01-15T01:51:06;28.63;;;11.05;;
35245;SDS011;21379;50.962;6.960;2024-01-15T01:53:34;28.52;;;11.05;;
35245;SDS011;21379;50.962;6.960;2024-01-15T01:56:01;29.80;;;9.45;;
35245;SDS011;21379;50.962;6.960;2024-01-15T01:58:29;30.15;;;11.45;;
35245;SDS011;21379;50.962;6.960;2024-01-15T02:00:58;35.35;;;12.13;;
35245;SDS011;21379;50.962;6.960;2024-01-15T02:03:25;28.52;;;12.52;;
35245;SDS011;21379;50.962;6.960;2024-01-15T02:05:52;26.88;;;10.70;;
35245;SDS011;21379;50.962;6.960;2024-01-15T02:08:20;28.27;;;10.38;;
35245;SDS011;21379;50.962;6.960;2024-01-15T02:10:46;23.35;;;8.48;;
35245;SDS011;21379;50.962;6.960;2024-01-15T02:13:13;28.33;;;10.75;;
35245;SDS011;21379;50.962;6.960;2024-01-15T02:15:40;25.63;;;8.35;;
35245;SDS011;21379;50.962;6.960;2024-01-15T02:18:08;38.05;;;13.30;;
35245;SDS011;21379;50.962;6.960;2024-01-15T02:20:35;28.80;;;10.30;;
35245;SDS011;21379;50.962;6.960;2024-01-15T02:23:09;24.98;;;9.98;;
35245;SDS011;21379;50.962;6.960;2024-01-15T02:25:37;27.60;;;11.30;;
35245;SDS011;21379;50.962;6.960;2024-01-15T02:28:04;25.05;;;10.70;;
35245;SDS011;21379;50.962;6.960;2024-01-15T02:30:32;20.55;;;9.07;;
35245;SDS011;21379;50.962;6.960;2024-01-15T02:32:58;29.00;;;12.02;;
35245;SDS011;21379;50.962;6.960;2024-01-15T02:35:25;22.55;;;8.50;;
35245;SDS011;21379;50.962;6.960;2024-01-15T02:37:52;30.38;;;11.73;;
35245;SDS011;21379;50.962;6.960;2024-01-15T02:40:20;24.58;;;8.20;;
35245;SDS011;21379;50.962;6.960;2024-01-15T02:42:47;33.65;;;11.88;;
35245;SDS011;21379;50.962;6.960;2024-01-15T02:45:13;28.98;;;11.30;;
35245;SDS011;21379;50.962;6.960;2024-01-15T02:47:40;25.88;;;9.23;;
35245;SDS011;21379;50.962;6.960;2024-01-15T02:50:07;26.50;;;11.73;;
35245;SDS011;21379;50.962;6.960;2024-01-15T02:52:33;29.95;;;10.43;;
35245;SDS011;21379;50.962;6.960;2024-01-15T02:55:00;28.58;;;11.25;;
35245;SDS011;21379;50.962;6.960;2024-01-15T02:57:28;30.30;;;10.95;;
35245;SDS011;21379;50.962;6.960;2024-01-15T02:59:55;23.58;;;10.45;;
35245;SDS011;21379;50.962;6.960;2024-01-15T03:02:21;30.60;;;12.27;;
35245;SDS011;21379;50.962;6.960;2024-01-15T03:04:48;33.05;;;11.57;;
35245;SDS011;21379;50.962;6.960;2024-01-15T03:07:15;36.58;;;11.38;;
35245;SDS011;21379;50.962;6.960;2024-01-15T03:09:42;30.48;;;10.95;;
35245;SDS011;21379;50.962;6.960;2024-01-15T03:12:08;29.67;;;9.90;;
35245;SDS011;21379;50.962;6.960;2024-01-15T03:14:37;24.65;;;7.95;;
35245;SDS011;21379;50.962;6.960;2024-01-15T03:17:04;19.25;;;8.80;;
35245;SDS011;21379;50.962;6.960;2024-01-15T03:19:31;30.95;;;10.68;;
35245;SDS011;21379;50.962;6.960;2024-01-15T03:22:00;35.30;;;12.30;;
35245;SDS011;21379;50.962;6.960;2024-01-15T03:24:28;31.92;;;10.98;;
35245;SDS011;21379;50.962;6.960;2024-01-15T03:26:55;25.75;;;8.60;;
35245;SDS011;21379;50.962;6.960;2024-01-15T03:29:22;27.90;;;10.30;;
35245;SDS011;21379;50.962;6.960;2024-01-15T03:31:50;26.33;;;10.30;;
35245;SDS011;21379;50.962;6.960;2024-01-15T03:34:17;21.42;;;9.93;;
35245;SDS011;21379;50.962;6.960;2024-01-15T03:36:43;26.35;;;9.98;;
35245;SDS011;21379;50.962;6.960;2024-01-15T03:39:10;26.73;;;10.25;;
35245;SDS011;21379;50.962;6.960;2024-01-15T03:41:37;28.00;;;10.43;;
35245;SDS011;21379;50.962;6.960;2024-01-15T03:44:03;28.23;;;9.63;;
35245;SDS011;21379;50.962;6.960;2024-01-15T03:46:31;22.88;;;8.98;;
35245;SDS011;21379;50.962;6.960;2024-01-15T03:48:59;35.00;;;12.13;;
35245;SDS011;21379;50.962;6.960;2024-01-15T03:51:26;22.30;;;8.48;;
35245;SDS011;21379;50.962;6.960;2024-01-15T03:53:53;32.08;;;11.88;;
35245;SDS011;21379;50.962;6.960;2024-01-15T03:56:19;32.72;;;13.10;;
35245;SDS011;21379;50.962;6.960;2024-01-15T03:58:46;21.58;;;8.90;;
35245;SDS011;21379;50.962;6.960;2024-01-15T04:01:13;35.40;;;12.80;;
35245;SDS011;21379;50.962;6.960;2024-01-15T04:03:39;25.40;;;10.30;;
35245;SDS011;21379;50.962;6.960;2024-01-15T04:06:07;32.10;;;11.38;;
35245;SDS011;21379;50.962;6.960;2024-01-15T04:08:34;25.75;;;10.18;;
35245;SDS011;21379;50.962;6.960;2024-01-15T04:11:01;28.20;;;10.93;;
35245;SDS011;21379;50.962;6.960;2024-01-15T04:13:28;31.50;;;10.88;;
35245;SDS011;21379;50.962;6.960;2024-01-15T04:15:54;28.98;;;9.95;;
35245;SDS011;21379;50.962;6.960;2024-01-15T04:18:21;29.63;;;11.07;;
35245;SDS011;21379;50.962;6.960;2024-01-15T04:20:48;29.50;;;10.27;;
35245;SDS011;21379;50.962;6.960;2024-01-15T04:23:16;29.63;;;10.60;;
35245;SDS011;21379;50.962;6.960;2024-01-15T04:25:42;28.17;;;11.15;;
35245;SDS011;21379;50.962;6.960;2024-01-15T04:28:09;22.95;;;9.45;;
35245;SDS011;21379;50.962;6.960;2024-01-15T04:30:36;29.10;;;10.98;;
35245;SDS011;21379;50.962;6.960;2024-01-15T04:33:03;27.73;;;10.55;;
35245;SDS011;21379;50.962;6.960;2024-01-15T04:35:30;22.02;;;7.43;;
35245;SDS011;21379;50.962;6.960;2024-01-15T04:37:57;23.05;;;9.88;;
35245;SDS011;21379;50.962;6.960;2024-01-15T04:40:25;29.95;;;10.60;;
35245;SDS011;21379;50.962;6.960;2024-01-15T04:42:52;29.08;;;10.50;;
35245;SDS011;21379;50.962;6.960;2024-01-15T04:45:19;27.38;;;10.70;;
35245;SDS011;21379;50.962;6.960;2024-01-15T04:47:48;23.17;;;8.88;;
35245;SDS011;21379;50.962;6.960;2024-01-15T04:50:14;26.08;;;10.65;;
35245;SDS011;21379;50.962;6.960;2024-01-15T04:52:41;21.40;;;8.52;;
35245;SDS011;21379;50.962;6.960;2024-01-15T04:55:08;21.85;;;9.10;;
35245;SDS011;21379;50.962;6.960;2024-01-15T04:57:36;28.58;;;9.02;;
35245;SDS011;21379;50.962;6.960;2024-01-15T05:00:03;22.58;;;8.98;;
35245;SDS011;21379;50.962;6.960;2024-01-15T05:02:30;21.90;;;8.20;;
35245;SDS011;21379;50.962;6.960;2024-01-15T05:04:57;23.52;;;9.60;;
35245;SDS011;21379;50.962;6.960;2024-01-15T05:07:24;21.27;;;9.13;;
35245;SDS011;21379;50.962;6.960;2024-01-15T05:09:50;21.15;;;8.50;;
35245;SDS011;21379;50.962;6.960;2024-01-15T05:12:17;28.27;;;10.15;;
35245;SDS011;21379;50.962;6.960;2024-01-15T05:14:45;22.13;;;9.30;;
35245;SDS011;21379;50.962;6.960;2024-01-15T05:17:12;16.17;;;6.50;;
35245;SDS011;21379;50.962;6.960;2024-01-15T05:19:38;21.50;;;7.97;;
35245;SDS011;21379;50.962;6.960;2024-01-15T05:22:05;22.73;;;9.63;;
35245;SDS011;21379;50.962;6.960;2024-01-15T05:24:32;24.95;;;10.45;;
35245;SDS011;21379;50.962;6.960;2024-01-15T05:26:58;22.92;;;9.05;;
35245;SDS011;21379;50.962;6.960;2024-01-15T05:29:25;23.25;;;9.60;;
35245;SDS011;21379;50.962;6.960;2024-01-15T05:31:53;28.63;;;9.18;;
35245;SDS011;21379;50.962;6.960;2024-01-15T05:34:20;22.35;;;9.63;;
35245;SDS011;21379;50.962;6.960;2024-01-15T05:36:46;24.08;;;9.00;;
35245;SDS011;21379;50.962;6.960;2024-01-15T05:39:13;18.90;;;7.82;;
35245;SDS011;21379;50.962;6.960;2024-01-15T05:41:40;12.60;;;6.45;;
35245;SDS011;21379;50.962;6.960;2024-01-15T05:44:07;22.05;;;7.97;;
35245;SDS011;21379;50.962;6.960;2024-01-15T05:46:33;16.67;;;7.28;;
35245;SDS011;21379;50.962;6.960;2024-01-15T05:49:01;18.38;;;7.18;;
35245;SDS011;21379;50.962;6.960;2024-01-15T05:51:28;17.90;;;6.18;;
35245;SDS011;21379;50.962;6.960;2024-01-15T05:53:55;18.63;;;7.03;;
35245;SDS011;21379;50.962;6.960;2024-01-15T05:56:22;17.85;;;8.13;;
35245;SDS011;21379;50.962;6.960;2024-01-15T05:58:51;22.58;;;7.38;;
35245;SDS011;21379;50.962;6.960;2024-01-15T06:01:18;25.00;;;8.70;;
35245;SDS011;21379;50.962;6.960;2024-01-15T06:03:44;22.80;;;8.07;;
35245;SDS011;21379;50.962;6.960;2024-01-15T06:06:12;21.20;;;7.70;;
35245;SDS011;21379;50.962;6.960;2024-01-15T06:08:39;20.77;;;7.00;;
35245;SDS011;21379;50.962;6.960;2024-01-15T06:11:06;20.02;;;8.25;;
35245;SDS011;21379;50.962;6.960;2024-01-15T06:13:33;28.80;;;8.65;;
35245;SDS011;21379;50.962;6.960;2024-01-15T06:15:59;18.58;;;8.48;;
35245;SDS011;21379;50.962;6.960;2024-01-15T06:18:26;22.83;;;9.00;;
35245;SDS011;21379;50.962;6.960;2024-01-15T06:20:53;19.42;;;8.45;;
35245;SDS011;21379;50.962;6.960;2024-01-15T06:23:21;18.08;;;7.80;;
35245;SDS011;21379;50.962;6.960;2024-01-15T06:25:47;18.65;;;8.57;;
35245;SDS011;21379;50.962;6.960;2024-01-15T06:28:14;18.20;;;8.30;;
35245;SDS011;21379;50.962;6.960;2024-01-15T06:30:41;23.50;;;8.60;;
35245;SDS011;21379;50.962;6.960;2024-01-15T06:33:07;20.10;;;9.07;;
35245;SDS011;21379;50.962;6.960;2024-01-15T06:35:34;23.60;;;8.32;;
35245;SDS011;21379;50.962;6.960;2024-01-15T06:38:01;16.45;;;8.48;;
35245;SDS011;21379;50.962;6.960;2024-01-15T06:40:29;17.52;;;8.90;;
35245;SDS011;21379;50.962;6.960;2024-01-15T06:42:55;23.45;;;8.77;;
35245;SDS011;21379;50.962;6.960;2024-01-15T06:45:22;15.73;;;7.78;;
35245;SDS011;21379;50.962;6.960;2024-01-15T06:47:49;19.80;;;9.80;;
35245;SDS011;21379;50.962;6.960;2024-01-15T06:50:16;19.40;;;8.57;;
35245;SDS011;21379;50.962;6.960;2024-01-15T06:52:42;17.85;;;8.93;;
35245;SDS011;21379;50.962;6.960;2024-01-15T06:55:09;21.50;;;9.40;;
35245;SDS011;21379;50.962;6.960;2024-01-15T06:57:37;24.83;;;8.70;;
35245;SDS011;21379;50.962;6.960;2024-01-15T07:00:04;19.40;;;8.00;;
35245;SDS011;21379;50.962;6.960;2024-01-15T07:02:33;23.48;;;8.60;;
35245;SDS011;21379;50.962;6.960;2024-01-15T07:05:00;22.10;;;9.20;;
35245;SDS011;21379;50.962;6.960;2024-01-15T07:07:26;21.98;;;9.13;;
35245;SDS011;21379;50.962;6.960;2024-01-15T07:09:54;24.25;;;9.77;;
35245;SDS011;21379;50.962;6.960;2024-01-15T07:12:21;16.33;;;8.13;;
35245;SDS011;21379;50.962;6.960;2024-01-15T07:14:49;22.42;;;9.30;;
35245;SDS011;21379;50.962;6.960;2024-01-15T07:17:16;25.92;;;9.45;;
35245;SDS011;21379;50.962;6.960;2024-01-15T07:19:42;19.48;;;7.95;;
35245;SDS011;21379;50.962;6.960;2024-01-15T07:22:09;17.15;;;7.57;;
35245;SDS011;21379;50.962;6.960;2024-01-15T07:24:36;20.05;;;9.35;;
35245;SDS011;21379;50.962;6.960;2024-01-15T07:27:03;16.13;;;8.48;;
35245;SDS011;21379;50.962;6.960;2024-01-15T07:29:30;10.95;;;5.13;;
35245;SDS011;21379;50.962;6.960;2024-01-15T07:31:59;10.88;;;5.85;;
35245;SDS011;21379;50.962;6.960;2024-01-15T07:34:26;15.90;;;6.85;;
35245;SDS011;21379;50.962;6.960;2024-01-15T07:36:53;13.88;;;6.28;;
35245;SDS011;21379;50.962;6.960;2024-01-15T07:39:19;21.67;;;9.02;;
35245;SDS011;21379;50.962;6.960;2024-01-15T07:41:49;18.17;;;8.05;;
35245;SDS011;21379;50.962;6.960;2024-01-15T07:44:16;19.92;;;9.30;;
35245;SDS011;21379;50.962;6.960;2024-01-15T07:46:43;22.50;;;9.55;;
35245;SDS011;21379;50.962;6.960;2024-01-15T07:49:12;23.23;;;9.68;;
35245;SDS011;21379;50.962;6.960;2024-01-15T07:54:06;19.42;;;8.98;;
35245;SDS011;21379;50.962;6.960;2024-01-15T07:56:33;18.58;;;8.57;;
35245;SDS011;21379;50.962;6.960;2024-01-15T07:59:00;22.60;;;8.70;;
35245;SDS011;21379;50.962;6.960;2024-01-15T08:01:26;23.35;;;8.60;;
35245;SDS011;21379;50.962;6.960;2024-01-15T08:03:53;19.65;;;10.32;;
35245;SDS011;21379;50.962;6.960;2024-01-15T08:06:21;20.98;;;10.00;;
35245;SDS011;21379;50.962;6.960;2024-01-15T08:08:48;17.50;;;7.95;;
35245;SDS011;21379;50.962;6.960;2024-01-15T08:11:15;22.60;;;8.60;;
35245;SDS011;21379;50.962;6.960;2024-01-15T08:13:41;22.58;;;9.05;;
35245;SDS011;21379;50.962;6.960;2024-01-15T08:16:08;19.63;;;9.30;;
35245;SDS011;21379;50.962;6.960;2024-01-15T08:18:35;22.10;;;8.80;;
35245;SDS011;21379;50.962;6.960;2024-01-15T08:21:02;15.82;;;6.90;;
35245;SDS011;21379;50.962;6.960;2024-01-15T08:23:30;15.60;;;4.97;;
35245;SDS011;21379;50.962;6.960;2024-01-15T08:25:57;21.00;;;8.93;;
35245;SDS011;21379;50.962;6.960;2024-01-15T08:28:24;25.83;;;9.98;;
35245;SDS011;21379;50.962;6.960;2024-01-15T08:30:50;22.13;;;9.43;;
35245;SDS011;21379;50.962;6.960;2024-01-15T08:33:17;32.35;;;10.75;;
35245;SDS011;21379;50.962;6.960;2024-01-15T08:35:44;17.15;;;8.23;;
35245;SDS011;21379;50.962;6.960;2024-01-15T08:38:10;22.73;;;9.27;;
35245;SDS011;21379;50.962;6.960;2024-01-15T08:40:39;22.60;;;10.07;;
35245;SDS011;21379;50.962;6.960;2024-01-15T08:43:05;28.30;;;9.23;;
35245;SDS011;21379;50.962;6.960;2024-01-15T08:45:32;23.77;;;9.85;;
35245;SDS011;21379;50.962;6.960;2024-01-15T08:47:59;25.40;;;10.13;;
35245;SDS011;21379;50.962;6.960;2024-01-15T08:50:26;17.33;;;8.20;;
35245;SDS011;21379;50.962;6.960;2024-01-15T08:52:53;21.30;;;9.48;;
35245;SDS011;21379;50.962;6.960;2024-01-15T08:55:19;15.88;;;7.70;;
35245;SDS011;21379;50.962;6.960;2024-01-15T08:57:49;20.90;;;8.43;;
35245;SDS011;21379;50.962;6.960;2024-01-15T09:00:15;28.08;;;10.48;;
35245;SDS011;21379;50.962;6.960;2024-01-15T09:02:42;23.35;;;9.98;;
35245;SDS011;21379;50.962;6.960;2024-01-15T09:05:10;23.63;;;9.93;;
35245;SDS011;21379;50.962;6.960;2024-01-15T09:07:37;21.55;;;8.60;;
35245;SDS011;21379;50.962;6.960;2024-01-15T09:10:04;10.38;;;5.95;;
35245;SDS011;21379;50.962;6.960;2024-01-15T09:12:31;13.05;;;7.88;;
35245;SDS011;21379;50.962;6.960;2024-01-15T09:14:59;25.42;;;9.13;;
35245;SDS011;21379;50.962;6.960;2024-01-15T09:17:29;17.42;;;8.68;;
35245;SDS011;21379;50.962;6.960;2024-01-15T09:19:56;24.73;;;11.65;;
35245;SDS011;21379;50.962;6.960;2024-01-15T09:22:22;16.25;;;7.60;;
35245;SDS011;21379;50.962;6.960;2024-01-15T09:24:49;16.02;;;7.15;;
35245;SDS011;21379;50.962;6.960;2024-01-15T09:27:16;17.50;;;8.05;;
35245;SDS011;21379;50.962;6.960;2024-01-15T09:29:42;21.98;;;7.93;;
35245;SDS011;21379;50.962;6.960;2024-01-15T09:34:39;14.57;;;6.22;;
35245;SDS011;21379;50.962;6.960;2024-01-15T09:37:06;17.05;;;7.00;;
35245;SDS011;21379;50.962;6.960;2024-01-15T09:39:33;12.02;;;7.03;;
35245;SDS011;21379;50.962;6.960;2024-01-15T09:42:00;17.52;;;7.22;;
35245;SDS011;21379;50.962;6.960;2024-01-15T09:44:27;17.88;;;8.02;;
35245;SDS011;21379;50.962;6.960;2024-01-15T09:46:55;17.98;;;8.32;;
35245;SDS011;21379;50.962;6.960;2024-01-15T09:49:23;7.47;;;4.75;;
35245;SDS011;21379;50.962;6.960;2024-01-15T09:51:50;10.52;;;4.82;;
35245;SDS011;21379;50.962;6.960;2024-01-15T09:54:17;9.15;;;4.50;;
35245;SDS011;21379;50.962;6.960;2024-01-15T09:56:44;6.35;;;3.72;;
35245;SDS011;21379;50.962;6.960;2024-01-15T09:59:11;4.43;;;3.08;;
35245;SDS011;21379;50.962;6.960;2024-01-15T10:01:40;7.28;;;4.25;;
35245;SDS011;21379;50.962;6.960;2024-01-15T10:04:07;8.07;;;4.03;;
35245;SDS011;21379;50.962;6.960;2024-01-15T10:06:35;5.65;;;2.85;;
35245;SDS011;21379;50.962;6.960;2024-01-15T10:09:03;7.55;;;4.13;;
35245;SDS011;21379;50.962;6.960;2024-01-15T10:11:29;10.75;;;5.07;;
35245;SDS011;21379;50.962;6.960;2024-01-15T10:13:57;8.38;;;3.92;;
35245;SDS011;21379;50.962;6.960;2024-01-15T10:16:23;10.05;;;4.40;;
35245;SDS011;21379;50.962;6.960;2024-01-15T10:18:50;10.88;;;4.57;;
35245;SDS011;21379;50.962;6.960;2024-01-15T10:21:17;12.18;;;4.72;;
35245;SDS011;21379;50.962;6.960;2024-01-15T10:23:45;7.28;;;4.18;;
35245;SDS011;21379;50.962;6.960;2024-01-15T10:26:13;8.30;;;3.95;;
35245;SDS011;21379;50.962;6.960;2024-01-15T10:28:40;6.40;;;3.35;;
35245;SDS011;21379;50.962;6.960;2024-01-15T10:31:07;14.40;;;3.88;;
35245;SDS011;21379;50.962;6.960;2024-01-15T10:33:35;9.35;;;4.10;;
35245;SDS011;21379;50.962;6.960;2024-01-15T10:36:01;8.10;;;4.10;;
35245;SDS011;21379;50.962;6.960;2024-01-15T10:38:29;7.82;;;4.28;;
35245;SDS011;21379;50.962;6.960;2024-01-15T10:40:57;6.93;;;3.58;;
35245;SDS011;21379;50.962;6.960;2024-01-15T10:43:23;5.28;;;3.60;;
35245;SDS011;21379;50.962;6.960;2024-01-15T10:45:51;6.47;;;2.83;;
35245;SDS011;21379;50.962;6.960;2024-01-15T10:48:18;6.10;;;2.45;;
35245;SDS011;21379;50.962;6.960;2024-01-15T10:50:45;6.05;;;2.95;;
35245;SDS011;21379;50.962;6.960;2024-01-15T10:53:13;5.40;;;2.85;;
35245;SDS011;21379;50.962;6.960;2024-01-15T10:55:42;4.85;;;2.95;;
35245;SDS011;21379;50.962;6.960;2024-01-15T10:58:10;5.35;;;3.40;;
35245;SDS011;21379;50.962;6.960;2024-01-15T11:00:37;4.20;;;2.22;;
35245;SDS011;21379;50.962;6.960;2024-01-15T11:03:04;5.35;;;3.35;;
35245;SDS011;21379;50.962;6.960;2024-01-15T11:05:33;6.00;;;3.08;;
35245;SDS011;21379;50.962;6.960;2024-01-15T11:08:00;4.85;;;2.47;;
35245;SDS011;21379;50.962;6.960;2024-01-15T11:10:40;6.75;;;3.25;;
35245;SDS011;21379;50.962;6.960;2024-01-15T11:13:08;5.40;;;2.65;;
35245;SDS011;21379;50.962;6.960;2024-01-15T11:16:00;5.97;;;2.33;;
35245;SDS011;21379;50.962;6.960;2024-01-15T11:18:28;4.85;;;2.97;;
35245;SDS011;21379;50.962;6.960;2024-01-15T11:23:48;7.18;;;2.75;;
35245;SDS011;21379;50.962;6.960;2024-01-15T11:26:32;2.95;;;1.63;;
35245;SDS011;21379;50.962;6.960;2024-01-15T11:29:02;4.22;;;2.45;;
35245;SDS011;21379;50.962;6.960;2024-01-15T11:37:24;3.28;;;2.00;;
35245;SDS011;21379;50.962;6.960;2024-01-15T11:39:52;2.83;;;1.13;;
35245;SDS011;21379;50.962;6.960;2024-01-15T11:42:19;3.30;;;2.33;;
35245;SDS011;21379;50.962;6.960;2024-01-15T11:44:48;4.07;;;2.08;;
35245;SDS011;21379;50.962;6.960;2024-01-15T11:47:15;3.97;;;1.83;;
35245;SDS011;21379;50.962;6.960;2024-01-15T11:49:50;3.45;;;2.45;;
35245;SDS011;21379;50.962;6.960;2024-01-15T11:52:30;8.38;;;2.55;;
35245;SDS011;21379;50.962;6.960;2024-01-15T11:55:00;12.27;;;4.78;;
35245;SDS011;21379;50.962;6.960;2024-01-15T11:57:40;10.48;;;4.22;;
35245;SDS011;21379;50.962;6.960;2024-01-15T12:00:11;7.05;;;3.55;;
35245;SDS011;21379;50.962;6.960;2024-01-15T12:02:39;7.03;;;3.65;;
35245;SDS011;21379;50.962;6.960;2024-01-15T12:05:06;7.35;;;4.43;;
35245;SDS011;21379;50.962;6.960;2024-01-15T12:07:33;7.05;;;3.97;;
35245;SDS011;21379;50.962;6.960;2024-01-15T12:10:00;8.45;;;4.47;;
35245;SDS011;21379;50.962;6.960;2024-01-15T12:12:29;12.60;;;5.28;;
35245;SDS011;21379;50.962;6.960;2024-01-15T12:15:00;8.13;;;4.32;;
35245;SDS011;21379;50.962;6.960;2024-01-15T12:17:28;8.85;;;4.35;;
35245;SDS011;21379;50.962;6.960;2024-01-15T12:19:56;8.85;;;4.70;;
35245;SDS011;21379;50.962;6.960;2024-01-15T12:22:23;8.90;;;4.72;;
35245;SDS011;21379;50.962;6.960;2024-01-15T12:24:49;15.75;;;6.50;;
35245;SDS011;21379;50.962;6.960;2024-01-15T12:27:16;11.65;;;4.38;;
35245;SDS011;21379;50.962;6.960;2024-01-15T12:29:43;11.40;;;4.82;;
35245;SDS011;21379;50.962;6.960;2024-01-15T12:32:11;8.82;;;5.07;;
35245;SDS011;21379;50.962;6.960;2024-01-15T12:34:39;9.02;;;4.13;;
35245;SDS011;21379;50.962;6.960;2024-01-15T12:37:06;9.80;;;3.88;;
35245;SDS011;21379;50.962;6.960;2024-01-15T12:39:33;9.20;;;3.72;;
35245;SDS011;21379;50.962;6.960;2024-01-15T12:42:00;9.38;;;4.30;;
35245;SDS011;21379;50.962;6.960;2024-01-15T12:44:27;11.23;;;3.40;;
35245;SDS011;21379;50.962;6.960;2024-01-15T12:46:54;9.05;;;2.97;;
35245;SDS011;21379;50.962;6.960;2024-01-15T12:49:21;11.13;;;3.83;;
35245;SDS011;21379;50.962;6.960;2024-01-15T12:51:53;9.75;;;3.88;;
35245;SDS011;21379;50.962;6.960;2024-01-15T12:54:20;7.70;;;3.55;;
35245;SDS011;21379;50.962;6.960;2024-01-15T12:56:48;7.13;;;3.20;;
35245;SDS011;21379;50.962;6.960;2024-01-15T12:59:15;6.65;;;3.05;;
35245;SDS011;21379;50.962;6.960;2024-01-15T13:01:42;8.98;;;3.20;;
35245;SDS011;21379;50.962;6.960;2024-01-15T13:04:09;6.63;;;2.67;;
35245;SDS011;21379;50.962;6.960;2024-01-15T13:06:36;5.57;;;2.28;;
35245;SDS011;21379;50.962;6.960;2024-01-15T13:09:04;5.13;;;2.95;;
35245;SDS011;21379;50.962;6.960;2024-01-15T13:11:31;6.85;;;3.15;;
35245;SDS011;21379;50.962;6.960;2024-01-15T13:13:58;5.45;;;2.58;;
35245;SDS011;21379;50.962;6.960;2024-01-15T13:16:25;10.80;;;3.33;;
35245;SDS011;21379;50.962;6.960;2024-01-15T13:18:54;5.45;;;2.60;;
35245;SDS011;21379;50.962;6.960;2024-01-15T13:21:20;8.80;;;2.67;;
35245;SDS011;21379;50.962;6.960;2024-01-15T13:23:47;5.93;;;2.30;;
35245;SDS011;21379;50.962;6.960;2024-01-15T13:26:15;7.40;;;2.47;;
35245;SDS011;21379;50.962;6.960;2024-01-15T13:28:43;5.15;;;2.38;;
35245;SDS011;21379;50.962;6.960;2024-01-15T13:31:10;4.68;;;2.13;;
35245;SDS011;21379;50.962;6.960;2024-01-15T13:33:37;10.10;;;3.58;;
35245;SDS011;21379;50.962;6.960;2024-01-15T13:36:04;6.25;;;2.00;;
35245;SDS011;21379;50.962;6.960;2024-01-15T13:38:33;4.68;;;2.22;;
35245;SDS011;21379;50.962;6.960;2024-01-15T13:41:02;6.28;;;2.42;;
35245;SDS011;21379;50.962;6.960;2024-01-15T13:43:30;8.05;;;2.70;;
35245;SDS011;21379;50.962;6.960;2024-01-15T13:45:57;5.07;;;2.08;;
35245;SDS011;21379;50.962;6.960;2024-01-15T13:48:24;7.63;;;1.90;;
35245;SDS011;21379;50.962;6.960;2024-01-15T13:50:51;2.40;;;1.65;;
35245;SDS011;21379;50.962;6.960;2024-01-15T13:53:18;5.20;;;2.00;;
35245;SDS011;21379;50.962;6.960;2024-01-15T13:55:45;2.67;;;1.38;;
35245;SDS011;21379;50.962;6.960;2024-01-15T13:58:12;1.98;;;1.55;;
35245;SDS011;21379;50.962;6.960;2024-01-15T14:00:40;3.65;;;1.90;;
35245;SDS011;21379;50.962;6.960;2024-01-15T14:03:07;2.50;;;1.67;;
35245;SDS011;21379;50.962;6.960;2024-01-15T14:05:34;1.73;;;1.20;;
35245;SDS011;21379;50.962;6.960;2024-01-15T14:08:00;3.75;;;1.20;;
35245;SDS011;21379;50.962;6.960;2024-01-15T14:10:28;2.20;;;1.30;;
35245;SDS011;21379;50.962;6.960;2024-01-15T14:12:55;2.90;;;1.35;;
35245;SDS011;21379;50.962;6.960;2024-01-15T14:15:22;4.05;;;1.45;;
35245;SDS011;21379;50.962;6.960;2024-01-15T14:17:50;2.17;;;1.23;;
35245;SDS011;21379;50.962;6.960;2024-01-15T14:20:17;2.30;;;1.25;;
35245;SDS011;21379;50.962;6.960;2024-01-15T14:22:44;4.75;;;1.67;;
35245;SDS011;21379;50.962;6.960;2024-01-15T14:25:11;2.63;;;1.83;;
35245;SDS011;21379;50.962;6.960;2024-01-15T14:27:37;2.17;;;1.10;;
35245;SDS011;21379;50.962;6.960;2024-01-15T14:30:04;2.15;;;0.80;;
35245;SDS011;21379;50.962;6.960;2024-01-15T14:32:33;3.58;;;1.20;;
35245;SDS011;21379;50.962;6.960;2024-01-15T14:35:01;2.53;;;1.35;;
35245;SDS011;21379;50.962;6.960;2024-01-15T14:37:29;3.10;;;1.60;;
35245;SDS011;21379;50.962;6.960;2024-01-15T14:39:56;0.90;;;0.70;;
35245;SDS011;21379;50.962;6.960;2024-01-15T14:42:22;1.23;;;1.08;;
35245;SDS011;21379;50.962;6.960;2024-01-15T14:44:50;2.03;;;1.60;;
35245;SDS011;21379;50.962;6.960;2024-01-15T14:47:17;2.35;;;1.60;;
35245;SDS011;21379;50.962;6.960;2024-01-15T14:49:44;1.20;;;1.10;;
35245;SDS011;21379;50.962;6.960;2024-01-15T14:52:12;2.65;;;1.83;;